Northern Sonoma County Latest

25 Stations

15 Minute Data | America/Los_Angeles
as of 5/7/26 12:26 AM PDT
Station Date Time Temp (°F) RH (%) Dew Pt (°F) Wind Spd (mph) Wind Dir (°) Wind Gust (mph) Latest Rain (In) Daily Rain (In) Daily Max Temp (°F) Daily Min Temp (°F)
Bavarian Lion EFW 5/7/26 0015 51.4   4.2 - - - - - 0.00 0.00 78.1   12.4 51.2   0.9
Rockpile Lower (Cooley) 5/7/26 0000 54.0   0.6 87   0 50.3   0.7 2.4   1.2 N | 6 4.1   1.1 0.00 0.00 77.8   11.4 52.4   3.8
Rockpile Upper (Cooley) 5/7/26 0015 52.5   2.8 88   6 49.1   0.9 2.3   0.4 NNW | 340 3.5   0.4 0.00 0.00 74.7   11.0 48.5   3.5
Lower Dry Creek Valley 5/7/26 0015 53.1   3.1 92   7 50.7   0.9 1.4   0.8 SE | 145 5.2   0.4 0.00 0.00 80.4   10.1 53.0   1.3
Geyserville-South (Nervo Station) 5/7/26 0015 52.7   2.9 - - 2.1   0.2 SSW | 213 5.1   0.7 0.00 0.00 77.9   8.7 52.2   1.7
Franz Valley (Stornetta) 5/7/26 0015 50.2   4.6 95   9 48.8   1.8 0.1   0.4 ENE | 58 1.1   1.1 0.00 0.00 75.5   11.8 50.0   1.3
Geyserville (Ranch 3) 5/7/26 0015 53.6   3.2 100   18 53.6   2.2 0.8   2.0 SE | 130 1.9   2.8 0.00 0.00 79.8   11.0 53.4   1.3
Geyserville-North (Hoffman) 5/7/26 0015 54.2   3.0 90   8 51.5   0.3 2.1   0.3 ESE | 116 4.7   0.7 0.00 0.00 81.7   10.3 54.0   2.9
Knights Valley (Bavarian Lion) 5/7/26 0015 50.7   4.5 95   11 49.4   1.0 1.0   0.7 N | 10 2.5   1.1 0.00 0.00 76.6   11.8 50.6   0.7
HWY 128/Chalk Hill Rd (Landslide) 5/7/26 0000 52.8   3.9 93   10 50.9   0.8 0.2   0.7 N | 359 1.3   0.4 0.00 0.00 78.8   11.6 52.7   0.4
Newman Knights Valley 5/7/26 0015 53.2   3.3 85   4 48.7   1.9 3.3   3.1 SSW | 213 6.1   5.0 0.00 0.00 76.2   11.5 53.1   0.5
Jimtown-North (Piccolo Ranch 15) 5/7/26 0015 52.3   4.0 90   11 49.6   0.4 0.0   1.3 N | 0 0.0   3.5 0.00 0.00 79.1   7.2 52.0   0.1
Peterson (Ranch 09) 5/7/26 0015 52.2   3.6 92   9 49.9   0.8 1.4   0.6 S | 185 3.3   0.2 0.00 0.00 78.2   9.9 52.1   0.4
Cloverdale-SE (Ranch 38) 5/7/26 0015 53.2   2.1 93   7 51.4   0.1 6.2   0.7 SSE | 155 7.9   0.1 0.00 0.00 81.2   11.8 52.9   2.7
Geyserville-East (Ranch 40) 5/7/26 0015 51.2   2.7 97   7 50.5   0.7 4.8   0.8 S | 175 6.9   1.6 0.00 0.00 79.6   9.8 51.1   1.2
N Chalk Hill Rd (Ranch 63) 5/7/26 0015 51.6   3.6 91   7 49.0   1.4 1.9   0.6 SE | 125 3.8   0.6 0.00 0.00 76.7   10.1 51.5   2.5
Cloverdale-East (Ranch 83) 5/7/26 0015 54.3   2.8 - - 2.2   0.1 SSW | 200 4.7   1.4 0.00 0.00 83.4   11.9 54.0   4.7
Crazy Creek Ranch 5/7/26 0015 52.6   4.0 95   9 51.2   1.1 1.2   0.4 N | 355 1.8   0.1 0.00 0.00 78.6   10.2 52.5   0.4
Lytton East (Hill 5) 5/7/26 0015 51.7   3.2 94   8 50.0   0.9 1.7   2.8 WSW | 247 2.7   3.9 0.00 0.00 77.2   8.5 51.6   1.0
Lytton East (Shop Hill Bottom) 5/7/26 0015 51.9   3.3 93   8 49.9   0.8 0.9   2.4 WSW | 255 2.8   3.4 0.00 0.00 79.8   10.7 51.8   0.8
Lytton West Hill (23PS) 5/7/26 0015 52.5   3.1 93   7 50.4   0.9 2.6   0.2 S | 172 6.3   1.8 0.00 0.00 79.1   9.0 52.4   0.7
Lytton West Lower (Lew 6) 5/7/26 0015 51.7   3.9 93   9 49.9   1.1 0.6   0.9 WSW | 252 2.2   1.8 0.00 0.00 78.4   8.2 51.6   0.3
Whitton Ranch (201e) 5/7/26 0015 52.3   3.8 94   9 50.7   0.9 1.6   0.1 SSW | 195 3.4   0.2 0.00 0.00 79.0   9.8 52.1   0.9
Upper Dry Creek Valley 5/7/26 0015 53.1   3.4 92   9 50.8   0.6 2.6   0.3 ESE | 120 5.6   0.4 0.00 0.00 80.9   9.2 52.9   1.6
Big River 5/7/26 0015 52.9   2.7 93   6 51.0   1.0 3.8   2.2 S | 176 7.3   4.6 0.00 0.00 76.5   10.2 52.8   0.8
Max     54.3 100 53.6 6.2 - 7.9 0.00 0.00 83.4 54.0
Avg     52.5 93 50.3 2.0 - 3.9 0.00 - - -
Min     50.2 85 48.7 0.0 - 0.0 0.00 0.00 74.7 48.5